UAE26K OMDB-OLBA
Flight info
| Callsign | UAE26K |
|---|---|
| Flight time | 3h 22m |
| Altitude | 38000 |
| Route | ANVIX DCT GIDIS DCT NABUN DCT RIBOT DCT SITER M440 KSA T503 BONIS DCT OTILA DCT SOKAN L768 FIRAS R655 KTN/N0479F260 R655 LEBOR |
| Aircraft | B77W/H-SDE1E2E3FGHIJ2J3J4J5M1RWXY/LB1D1 |
Departure
| Time | 2026-05-05 16:14 |
|---|---|
| Airport | Dubai International Airport (OMDB) |
Arrival
| Time | 2026-05-05 19:37 |
|---|---|
| Airport | Beirut Rafic Hariri International Airport (OLBA) |
| Time | Latitude | Longitude | Altitude | Speed | Heading |
|---|---|---|---|---|---|
| 2026-05-05 15:51 | 25.24197 | 55.37248 | 30 ft | 0 kts | 31° |
| 2026-05-05 16:07 | 25.24187 | 55.37242 | 25 ft | 4 kts | 31° |
| 2026-05-05 16:08 | 25.24164 | 55.37226 | 26 ft | 4 kts | 31° |
| 2026-05-05 16:08 | 25.24145 | 55.37211 | 31 ft | 4 kts | 52° |
| 2026-05-05 16:08 | 25.24134 | 55.37189 | 30 ft | 4 kts | 82° |
| 2026-05-05 16:08 | 25.24134 | 55.37163 | 31 ft | 4 kts | 108° |
| 2026-05-05 16:09 | 25.24143 | 55.37142 | 31 ft | 3 kts | 121° |
| 2026-05-05 16:09 | 25.24156 | 55.37117 | 31 ft | 4 kts | 121° |
| 2026-05-05 16:09 | 25.24160 | 55.37112 | 31 ft | 0 kts | 121° |
| 2026-05-05 16:11 | 25.24113 | 55.37196 | 31 ft | 22 kts | 121° |
| 2026-05-05 16:11 | 25.24120 | 55.37671 | 29 ft | 27 kts | 31° |
| 2026-05-05 16:12 | 25.24281 | 55.37781 | 27 ft | 27 kts | 32° |
| 2026-05-05 16:12 | 25.24597 | 55.38018 | 30 ft | 28 kts | 33° |
| 2026-05-05 16:13 | 25.24958 | 55.37755 | 35 ft | 86 kts | 301° |
| 2026-05-05 16:13 | 25.25408 | 55.36944 | 35 ft | 159 kts | 302° |
| 2026-05-05 16:13 | 25.26067 | 55.35780 | 365 ft | 187 kts | 302° |
| 2026-05-05 16:14 | 25.27462 | 55.33243 | 1704 ft | 205 kts | 303° |
| 2026-05-05 16:14 | 25.28909 | 55.30458 | 3195 ft | 208 kts | 296° |
| 2026-05-05 16:15 | 25.29187 | 55.27338 | 4505 ft | 216 kts | 250° |
| 2026-05-05 16:15 | 25.27834 | 55.24425 | 5949 ft | 209 kts | 241° |
| 2026-05-05 16:16 | 25.26357 | 55.21417 | 6715 ft | 243 kts | 243° |
| 2026-05-05 16:16 | 25.24700 | 55.18008 | 7877 ft | 257 kts | 232° |
| 2026-05-05 16:17 | 25.22054 | 55.16631 | 8863 ft | 270 kts | 179° |
| 2026-05-05 16:17 | 25.20163 | 55.16812 | 9400 ft | 276 kts | 167° |
| 2026-05-05 16:18 | 25.16933 | 55.20235 | 10564 ft | 301 kts | 117° |
| 2026-05-05 16:18 | 25.16291 | 55.21610 | 11010 ft | 307 kts | 117° |
| 2026-05-05 16:18 | 25.13947 | 55.26563 | 13171 ft | 315 kts | 117° |
| 2026-05-05 16:19 | 25.13253 | 55.28017 | 13767 ft | 318 kts | 117° |
| 2026-05-05 16:19 | 25.12222 | 55.30167 | 14584 ft | 324 kts | 117° |
| 2026-05-05 16:19 | 25.10122 | 55.34652 | 16330 ft | 333 kts | 114° |
| 2026-05-05 16:20 | 25.08207 | 55.39365 | 18116 ft | 343 kts | 114° |
| 2026-05-05 16:20 | 25.06237 | 55.44301 | 19328 ft | 368 kts | 112° |
| 2026-05-05 16:21 | 25.04106 | 55.49894 | 19663 ft | 419 kts | 112° |
| 2026-05-05 16:22 | 25.00103 | 55.59036 | 20894 ft | 457 kts | 121° |
| 2026-05-05 16:22 | 24.96467 | 55.64814 | 22023 ft | 464 kts | 139° |
| 2026-05-05 16:23 | 24.90613 | 55.67462 | 23267 ft | 465 kts | 178° |
| 2026-05-05 16:23 | 24.87393 | 55.67242 | 23858 ft | 463 kts | 193° |
| 2026-05-05 16:23 | 24.81562 | 55.64383 | 24937 ft | 460 kts | 222° |
| 2026-05-05 16:24 | 24.79262 | 55.62014 | 25353 ft | 461 kts | 226° |
| 2026-05-05 16:24 | 24.76976 | 55.59515 | 25817 ft | 465 kts | 227° |
| 2026-05-05 16:24 | 24.72378 | 55.54466 | 26946 ft | 468 kts | 227° |
| 2026-05-05 16:25 | 24.70050 | 55.51952 | 27484 ft | 470 kts | 227° |
| 2026-05-05 16:25 | 24.65321 | 55.46924 | 28427 ft | 475 kts | 226° |
| 2026-05-05 16:25 | 24.62919 | 55.44391 | 28856 ft | 478 kts | 226° |
| 2026-05-05 16:26 | 24.58118 | 55.39345 | 29651 ft | 483 kts | 226° |
| 2026-05-05 16:26 | 24.53246 | 55.34227 | 30367 ft | 484 kts | 226° |
| 2026-05-05 16:27 | 24.50803 | 55.31662 | 30819 ft | 482 kts | 226° |
| 2026-05-05 16:27 | 24.48381 | 55.29120 | 31292 ft | 480 kts | 227° |
| 2026-05-05 16:27 | 24.46000 | 55.26622 | 31749 ft | 479 kts | 227° |
| 2026-05-05 16:27 | 24.43582 | 55.24086 | 32202 ft | 477 kts | 227° |
| 2026-05-05 16:28 | 24.41182 | 55.21570 | 32623 ft | 476 kts | 227° |
| 2026-05-05 16:28 | 24.38786 | 55.19059 | 33057 ft | 475 kts | 227° |
| 2026-05-05 16:28 | 24.36394 | 55.16553 | 33520 ft | 474 kts | 227° |
| 2026-05-05 16:28 | 24.34005 | 55.14053 | 33921 ft | 473 kts | 227° |
| 2026-05-05 16:29 | 24.31661 | 55.11601 | 34278 ft | 472 kts | 227° |
| 2026-05-05 16:29 | 24.29288 | 55.09119 | 34653 ft | 470 kts | 227° |
| 2026-05-05 16:29 | 24.26916 | 55.06640 | 35031 ft | 469 kts | 227° |
| 2026-05-05 16:29 | 24.24555 | 55.04175 | 35409 ft | 467 kts | 227° |
| 2026-05-05 16:30 | 24.22201 | 55.01717 | 35754 ft | 467 kts | 227° |
| 2026-05-05 16:30 | 24.19828 | 54.99240 | 35764 ft | 472 kts | 227° |
| 2026-05-05 16:30 | 24.15104 | 54.94314 | 35768 ft | 469 kts | 226° |
| 2026-05-05 16:31 | 24.10410 | 54.89427 | 35771 ft | 465 kts | 226° |
| 2026-05-05 16:31 | 24.06120 | 54.84193 | 35787 ft | 460 kts | 238° |
| 2026-05-05 16:32 | 24.02928 | 54.78149 | 35765 ft | 457 kts | 248° |
| 2026-05-05 16:32 | 24.00567 | 54.71677 | 35764 ft | 458 kts | 250° |
| 2026-05-05 16:33 | 23.98272 | 54.65197 | 35770 ft | 459 kts | 250° |
| 2026-05-05 16:33 | 23.95932 | 54.58678 | 35766 ft | 460 kts | 250° |
| 2026-05-05 16:34 | 23.93565 | 54.52160 | 35769 ft | 461 kts | 250° |
| 2026-05-05 16:34 | 23.91195 | 54.45670 | 35766 ft | 461 kts | 249° |
| 2026-05-05 16:35 | 23.88811 | 54.39150 | 35769 ft | 461 kts | 249° |
| 2026-05-05 16:35 | 23.86442 | 54.32679 | 35770 ft | 461 kts | 249° |
| 2026-05-05 16:36 | 23.84054 | 54.26165 | 35771 ft | 461 kts | 249° |
| 2026-05-05 16:36 | 23.81664 | 54.19652 | 35770 ft | 461 kts | 249° |
| 2026-05-05 16:37 | 23.79289 | 54.13193 | 35772 ft | 460 kts | 249° |
| 2026-05-05 16:37 | 23.76893 | 54.06687 | 35775 ft | 460 kts | 249° |
| 2026-05-05 16:38 | 23.74499 | 54.00193 | 35775 ft | 460 kts | 249° |
| 2026-05-05 16:38 | 23.72120 | 53.93753 | 35772 ft | 460 kts | 249° |
| 2026-05-05 16:39 | 23.69724 | 53.87274 | 35775 ft | 460 kts | 249° |
| 2026-05-05 16:39 | 23.67318 | 53.80780 | 35775 ft | 460 kts | 249° |
| 2026-05-05 16:40 | 23.64931 | 53.74344 | 35782 ft | 460 kts | 249° |
| 2026-05-05 16:40 | 23.62520 | 53.67853 | 35778 ft | 461 kts | 249° |
| 2026-05-05 16:41 | 23.60122 | 53.61411 | 35792 ft | 461 kts | 249° |
| 2026-05-05 16:41 | 23.58914 | 53.58165 | 35901 ft | 463 kts | 249° |
| 2026-05-05 16:41 | 23.57701 | 53.54911 | 36254 ft | 462 kts | 249° |
| 2026-05-05 16:42 | 23.56490 | 53.51666 | 36709 ft | 458 kts | 249° |
| 2026-05-05 16:42 | 23.55292 | 53.48459 | 37153 ft | 455 kts | 249° |
| 2026-05-05 16:42 | 23.54105 | 53.45281 | 37575 ft | 452 kts | 249° |
| 2026-05-05 16:42 | 23.52918 | 53.42107 | 37820 ft | 453 kts | 249° |
| 2026-05-05 16:43 | 23.50527 | 53.35714 | 37781 ft | 457 kts | 249° |
| 2026-05-05 16:43 | 23.48133 | 53.29328 | 37777 ft | 451 kts | 249° |
| 2026-05-05 16:44 | 23.45774 | 53.23044 | 37785 ft | 449 kts | 249° |
| 2026-05-05 16:44 | 23.43406 | 53.16744 | 37781 ft | 449 kts | 249° |
| 2026-05-05 16:45 | 23.41034 | 53.10442 | 37790 ft | 449 kts | 249° |
| 2026-05-05 16:45 | 23.38657 | 53.04134 | 37787 ft | 451 kts | 249° |
| 2026-05-05 16:46 | 23.36285 | 52.97851 | 37787 ft | 452 kts | 249° |
| 2026-05-05 16:46 | 23.33885 | 52.91501 | 37786 ft | 453 kts | 249° |
| 2026-05-05 16:47 | 23.31481 | 52.85151 | 37784 ft | 453 kts | 249° |
| 2026-05-05 16:47 | 23.29091 | 52.78845 | 37782 ft | 454 kts | 249° |
| 2026-05-05 16:48 | 23.26679 | 52.72492 | 37785 ft | 454 kts | 249° |
| 2026-05-05 16:48 | 23.24260 | 52.66127 | 37784 ft | 454 kts | 249° |
| 2026-05-05 16:49 | 23.21857 | 52.59815 | 37780 ft | 454 kts | 249° |
| 2026-05-05 16:49 | 23.19436 | 52.53462 | 37778 ft | 454 kts | 248° |
| 2026-05-05 16:50 | 23.17028 | 52.47154 | 37783 ft | 454 kts | 248° |
| 2026-05-05 16:50 | 23.16037 | 52.43923 | 37770 ft | 451 kts | 259° |
| 2026-05-05 16:50 | 23.15711 | 52.40528 | 37799 ft | 451 kts | 269° |
| 2026-05-05 16:51 | 23.16595 | 52.33797 | 37791 ft | 453 kts | 286° |
| 2026-05-05 16:51 | 23.18653 | 52.27281 | 37801 ft | 455 kts | 287° |
| 2026-05-05 16:52 | 23.20747 | 52.20814 | 37782 ft | 457 kts | 287° |
| 2026-05-05 16:52 | 23.22813 | 52.14268 | 37785 ft | 457 kts | 286° |
| 2026-05-05 16:53 | 23.24851 | 52.07691 | 37784 ft | 458 kts | 286° |
| 2026-05-05 16:53 | 23.26863 | 52.01151 | 37783 ft | 458 kts | 286° |
| 2026-05-05 16:54 | 23.28879 | 51.94584 | 37786 ft | 457 kts | 286° |
| 2026-05-05 16:54 | 23.30884 | 51.88052 | 37784 ft | 457 kts | 286° |
| 2026-05-05 16:55 | 23.32894 | 51.81490 | 37779 ft | 456 kts | 286° |
| 2026-05-05 16:55 | 23.34888 | 51.74973 | 37780 ft | 455 kts | 286° |
| 2026-05-05 16:56 | 23.36889 | 51.68422 | 37785 ft | 455 kts | 285° |
| 2026-05-05 16:56 | 23.38876 | 51.61907 | 37782 ft | 455 kts | 285° |
| 2026-05-05 16:57 | 23.40865 | 51.55371 | 37783 ft | 454 kts | 285° |
| 2026-05-05 16:57 | 23.42859 | 51.48809 | 37782 ft | 454 kts | 285° |
| 2026-05-05 16:58 | 23.44831 | 51.42311 | 37786 ft | 454 kts | 285° |
| 2026-05-05 16:58 | 23.46819 | 51.35748 | 37783 ft | 455 kts | 285° |
| 2026-05-05 16:59 | 23.48792 | 51.29220 | 37782 ft | 455 kts | 285° |
| 2026-05-05 16:59 | 23.50771 | 51.22666 | 37773 ft | 455 kts | 285° |
| 2026-05-05 17:00 | 23.52737 | 51.16142 | 37784 ft | 454 kts | 285° |
| 2026-05-05 17:00 | 23.54709 | 51.09587 | 37780 ft | 454 kts | 285° |
| 2026-05-05 17:01 | 23.56676 | 51.03038 | 37778 ft | 454 kts | 285° |
| 2026-05-05 17:01 | 23.58631 | 50.96518 | 37778 ft | 454 kts | 285° |
| 2026-05-05 17:02 | 23.60595 | 50.89958 | 37776 ft | 454 kts | 285° |
| 2026-05-05 17:02 | 23.62542 | 50.83442 | 37774 ft | 454 kts | 285° |
| 2026-05-05 17:03 | 23.64500 | 50.76876 | 37775 ft | 454 kts | 285° |
| 2026-05-05 17:03 | 23.66437 | 50.70372 | 37783 ft | 453 kts | 284° |
| 2026-05-05 17:04 | 23.68389 | 50.63806 | 37784 ft | 453 kts | 284° |
| 2026-05-05 17:04 | 23.70335 | 50.57249 | 37779 ft | 453 kts | 284° |
| 2026-05-05 17:05 | 23.72266 | 50.50733 | 37777 ft | 453 kts | 284° |
| 2026-05-05 17:05 | 23.73880 | 50.45278 | 37773 ft | 453 kts | 284° |
| 2026-05-05 17:06 | 23.75820 | 50.38707 | 37775 ft | 453 kts | 284° |
| 2026-05-05 17:06 | 23.77742 | 50.32189 | 37774 ft | 453 kts | 284° |
| 2026-05-05 17:07 | 23.79679 | 50.25607 | 37774 ft | 453 kts | 284° |
| 2026-05-05 17:07 | 23.81586 | 50.19118 | 37774 ft | 453 kts | 284° |
| 2026-05-05 17:08 | 23.83520 | 50.12523 | 37772 ft | 453 kts | 284° |
| 2026-05-05 17:08 | 23.85444 | 50.05953 | 37773 ft | 453 kts | 284° |
| 2026-05-05 17:09 | 23.87361 | 49.99392 | 37771 ft | 453 kts | 284° |
| 2026-05-05 17:09 | 23.89266 | 49.92866 | 37774 ft | 453 kts | 284° |
| 2026-05-05 17:10 | 23.91172 | 49.86320 | 37774 ft | 453 kts | 284° |
| 2026-05-05 17:10 | 23.93086 | 49.79740 | 37773 ft | 453 kts | 284° |
| 2026-05-05 17:11 | 23.94994 | 49.73163 | 37771 ft | 453 kts | 284° |
| 2026-05-05 17:11 | 23.96887 | 49.66632 | 37775 ft | 453 kts | 284° |
| 2026-05-05 17:12 | 23.98792 | 49.60044 | 37772 ft | 452 kts | 284° |
| 2026-05-05 17:12 | 24.00688 | 49.53479 | 37769 ft | 452 kts | 284° |
| 2026-05-05 17:13 | 24.02572 | 49.46941 | 37769 ft | 452 kts | 284° |
| 2026-05-05 17:13 | 24.04451 | 49.40409 | 37770 ft | 452 kts | 284° |
| 2026-05-05 17:14 | 24.06335 | 49.33849 | 37769 ft | 452 kts | 284° |
| 2026-05-05 17:14 | 24.08217 | 49.27283 | 37770 ft | 452 kts | 284° |
| 2026-05-05 17:15 | 24.10089 | 49.20740 | 37770 ft | 452 kts | 284° |
| 2026-05-05 17:15 | 24.11966 | 49.14171 | 37770 ft | 452 kts | 284° |
| 2026-05-05 17:16 | 24.13841 | 49.07596 | 37740 ft | 451 kts | 283° |
| 2026-05-05 17:16 | 24.15698 | 49.01072 | 37769 ft | 451 kts | 283° |
| 2026-05-05 17:17 | 24.17564 | 48.94502 | 37770 ft | 451 kts | 283° |
| 2026-05-05 17:17 | 24.19486 | 48.87949 | 37766 ft | 452 kts | 285° |
| 2026-05-05 17:18 | 24.21656 | 48.81523 | 37777 ft | 451 kts | 286° |
| 2026-05-05 17:18 | 24.23859 | 48.75116 | 37777 ft | 450 kts | 286° |
| 2026-05-05 17:19 | 24.26034 | 48.68677 | 37780 ft | 449 kts | 285° |
| 2026-05-05 17:19 | 24.28169 | 48.62279 | 37780 ft | 448 kts | 285° |
| 2026-05-05 17:20 | 24.30302 | 48.55860 | 37784 ft | 447 kts | 285° |
| 2026-05-05 17:20 | 24.32430 | 48.49447 | 37787 ft | 446 kts | 285° |
| 2026-05-05 17:21 | 24.34537 | 48.43091 | 37791 ft | 445 kts | 285° |
| 2026-05-05 17:22 | 24.37711 | 48.33498 | 37796 ft | 444 kts | 285° |
| 2026-05-05 17:22 | 24.39809 | 48.27142 | 37800 ft | 444 kts | 285° |
| 2026-05-05 17:23 | 24.41900 | 48.20800 | 37805 ft | 444 kts | 285° |
| 2026-05-05 17:23 | 24.44004 | 48.14410 | 37806 ft | 444 kts | 285° |
| 2026-05-05 17:24 | 24.46100 | 48.08031 | 37813 ft | 444 kts | 284° |
| 2026-05-05 17:24 | 24.48193 | 48.01652 | 37818 ft | 443 kts | 284° |
| 2026-05-05 17:25 | 24.50268 | 47.95316 | 37819 ft | 443 kts | 284° |
| 2026-05-05 17:25 | 24.52354 | 47.88935 | 37825 ft | 443 kts | 284° |
| 2026-05-05 17:26 | 24.54436 | 47.82560 | 37826 ft | 442 kts | 284° |
| 2026-05-05 17:26 | 24.56620 | 47.76282 | 37832 ft | 443 kts | 287° |
| 2026-05-05 17:27 | 24.59022 | 47.70032 | 37836 ft | 443 kts | 287° |
| 2026-05-05 17:27 | 24.61436 | 47.63788 | 37832 ft | 443 kts | 287° |
| 2026-05-05 17:28 | 24.63817 | 47.57578 | 37840 ft | 442 kts | 287° |
| 2026-05-05 17:28 | 24.66194 | 47.51340 | 37845 ft | 441 kts | 287° |
| 2026-05-05 17:29 | 24.68553 | 47.45131 | 37845 ft | 441 kts | 287° |
| 2026-05-05 17:29 | 24.70923 | 47.38888 | 37846 ft | 441 kts | 287° |
| 2026-05-05 17:30 | 24.73272 | 47.32692 | 37850 ft | 441 kts | 287° |
| 2026-05-05 17:30 | 24.75633 | 47.26456 | 37851 ft | 440 kts | 287° |
| 2026-05-05 17:31 | 24.77989 | 47.20222 | 37856 ft | 440 kts | 287° |
| 2026-05-05 17:31 | 24.80328 | 47.14025 | 37858 ft | 441 kts | 287° |
| 2026-05-05 17:32 | 24.82675 | 47.07797 | 37862 ft | 441 kts | 287° |
| 2026-05-05 17:32 | 24.85026 | 47.01549 | 37872 ft | 441 kts | 287° |
| 2026-05-05 17:33 | 24.87362 | 46.95331 | 37880 ft | 441 kts | 286° |
| 2026-05-05 17:33 | 24.89711 | 46.89072 | 37873 ft | 442 kts | 286° |
| 2026-05-05 17:34 | 24.92058 | 46.82806 | 37879 ft | 442 kts | 286° |
| 2026-05-05 17:34 | 24.94392 | 46.76568 | 37891 ft | 442 kts | 286° |
| 2026-05-05 17:35 | 24.96868 | 46.70352 | 37887 ft | 448 kts | 292° |
| 2026-05-05 17:35 | 25.00446 | 46.64638 | 37890 ft | 457 kts | 302° |
| 2026-05-05 17:36 | 25.04974 | 46.59588 | 37893 ft | 465 kts | 309° |
| 2026-05-05 17:36 | 25.09749 | 46.54814 | 37886 ft | 465 kts | 310° |
| 2026-05-05 17:37 | 25.14541 | 46.50002 | 37882 ft | 464 kts | 309° |
| 2026-05-05 17:37 | 25.19291 | 46.45165 | 37883 ft | 463 kts | 309° |
| 2026-05-05 17:38 | 25.24011 | 46.40329 | 37883 ft | 462 kts | 309° |
| 2026-05-05 17:38 | 25.28699 | 46.35517 | 37884 ft | 462 kts | 309° |
| 2026-05-05 17:39 | 25.33425 | 46.30664 | 37882 ft | 461 kts | 308° |
| 2026-05-05 17:39 | 25.38108 | 46.25850 | 37882 ft | 461 kts | 308° |
| 2026-05-05 17:40 | 25.42815 | 46.21008 | 37881 ft | 460 kts | 308° |
| 2026-05-05 17:40 | 25.47469 | 46.16213 | 37888 ft | 460 kts | 308° |
| 2026-05-05 17:41 | 25.52163 | 46.11372 | 37881 ft | 460 kts | 308° |
| 2026-05-05 17:41 | 25.56853 | 46.06530 | 37883 ft | 459 kts | 308° |
| 2026-05-05 17:42 | 25.61501 | 46.01726 | 37884 ft | 459 kts | 308° |
| 2026-05-05 17:42 | 25.66180 | 45.96888 | 37869 ft | 458 kts | 308° |
| 2026-05-05 17:43 | 25.70820 | 45.92085 | 37876 ft | 458 kts | 308° |
| 2026-05-05 17:43 | 25.75475 | 45.87261 | 37884 ft | 457 kts | 308° |
| 2026-05-05 17:44 | 25.80132 | 45.82428 | 37884 ft | 457 kts | 308° |
| 2026-05-05 17:44 | 25.84746 | 45.77635 | 37886 ft | 456 kts | 308° |
| 2026-05-05 17:45 | 25.89389 | 45.72809 | 37887 ft | 456 kts | 307° |
| 2026-05-05 17:45 | 25.93996 | 45.68019 | 37887 ft | 455 kts | 307° |
| 2026-05-05 17:46 | 25.98619 | 45.63206 | 37887 ft | 454 kts | 307° |
| 2026-05-05 17:46 | 26.03231 | 45.58397 | 37887 ft | 454 kts | 307° |
| 2026-05-05 17:47 | 26.07838 | 45.53588 | 37886 ft | 454 kts | 307° |
| 2026-05-05 17:47 | 26.12411 | 45.48808 | 37884 ft | 453 kts | 307° |
| 2026-05-05 17:48 | 26.17010 | 45.43998 | 37877 ft | 453 kts | 307° |
| 2026-05-05 17:48 | 26.21605 | 45.39170 | 37874 ft | 453 kts | 307° |
| 2026-05-05 17:49 | 26.26160 | 45.34371 | 37877 ft | 453 kts | 307° |
| 2026-05-05 17:49 | 26.30748 | 45.29536 | 37878 ft | 453 kts | 307° |
| 2026-05-05 17:50 | 26.35319 | 45.24737 | 37870 ft | 454 kts | 307° |
| 2026-05-05 17:50 | 26.39920 | 45.19911 | 37874 ft | 454 kts | 307° |
| 2026-05-05 17:51 | 26.44529 | 45.15067 | 37874 ft | 454 kts | 307° |
| 2026-05-05 17:51 | 26.49106 | 45.10249 | 37873 ft | 454 kts | 307° |
| 2026-05-05 17:52 | 26.53711 | 45.05395 | 37868 ft | 455 kts | 306° |
| 2026-05-05 17:52 | 26.58319 | 45.00534 | 37873 ft | 455 kts | 306° |
| 2026-05-05 17:53 | 26.62155 | 44.96485 | 37869 ft | 455 kts | 306° |
| 2026-05-05 17:53 | 26.67509 | 44.90835 | 37866 ft | 455 kts | 306° |
| 2026-05-05 17:54 | 26.71368 | 44.86758 | 37869 ft | 455 kts | 306° |
| 2026-05-05 17:54 | 26.75944 | 44.81915 | 37871 ft | 455 kts | 306° |
| 2026-05-05 17:55 | 26.80526 | 44.77052 | 37868 ft | 454 kts | 306° |
| 2026-05-05 17:55 | 26.85108 | 44.72168 | 37870 ft | 453 kts | 306° |
| 2026-05-05 17:56 | 26.89653 | 44.67318 | 37871 ft | 453 kts | 306° |
| 2026-05-05 17:56 | 26.94228 | 44.62432 | 37871 ft | 453 kts | 306° |
| 2026-05-05 17:57 | 26.98799 | 44.57546 | 37869 ft | 454 kts | 306° |
| 2026-05-05 17:57 | 27.03356 | 44.52681 | 37881 ft | 454 kts | 306° |
| 2026-05-05 17:58 | 27.07956 | 44.47774 | 37886 ft | 454 kts | 306° |
| 2026-05-05 17:58 | 27.12514 | 44.42903 | 37873 ft | 455 kts | 306° |
| 2026-05-05 17:59 | 27.17117 | 44.37977 | 37875 ft | 456 kts | 306° |
| 2026-05-05 17:59 | 27.21716 | 44.33047 | 37885 ft | 457 kts | 306° |
| 2026-05-05 18:00 | 27.26295 | 44.28131 | 37892 ft | 458 kts | 306° |
| 2026-05-05 18:00 | 27.30903 | 44.23177 | 37896 ft | 458 kts | 306° |
| 2026-05-05 18:01 | 27.35517 | 44.18210 | 37908 ft | 458 kts | 306° |
| 2026-05-05 18:01 | 27.40103 | 44.13268 | 37901 ft | 458 kts | 306° |
| 2026-05-05 18:02 | 27.44717 | 44.08290 | 37913 ft | 458 kts | 306° |
| 2026-05-05 18:02 | 27.49291 | 44.03348 | 37904 ft | 458 kts | 306° |
| 2026-05-05 18:03 | 27.53892 | 43.98372 | 37913 ft | 457 kts | 306° |
| 2026-05-05 18:03 | 27.58482 | 43.93401 | 37917 ft | 456 kts | 305° |
| 2026-05-05 18:04 | 27.63039 | 43.88458 | 37923 ft | 456 kts | 305° |
| 2026-05-05 18:04 | 27.67624 | 43.83480 | 37919 ft | 456 kts | 305° |
| 2026-05-05 18:05 | 27.72169 | 43.78539 | 37914 ft | 456 kts | 305° |
| 2026-05-05 18:05 | 27.76742 | 43.73561 | 37926 ft | 455 kts | 305° |
| 2026-05-05 18:06 | 27.81281 | 43.68614 | 37916 ft | 455 kts | 305° |
| 2026-05-05 18:06 | 27.85835 | 43.63613 | 37921 ft | 453 kts | 304° |
| 2026-05-05 18:07 | 27.90132 | 43.58486 | 37925 ft | 451 kts | 302° |
| 2026-05-05 18:07 | 27.94392 | 43.53262 | 37922 ft | 451 kts | 302° |
| 2026-05-05 18:08 | 27.98668 | 43.48059 | 37930 ft | 451 kts | 302° |
| 2026-05-05 18:08 | 28.02965 | 43.42863 | 37939 ft | 452 kts | 302° |
| 2026-05-05 18:09 | 28.07254 | 43.37683 | 37939 ft | 453 kts | 302° |
| 2026-05-05 18:09 | 28.11565 | 43.32471 | 37938 ft | 452 kts | 302° |
| 2026-05-05 18:10 | 28.15865 | 43.27262 | 37943 ft | 452 kts | 302° |
| 2026-05-05 18:10 | 28.20137 | 43.22081 | 37950 ft | 452 kts | 302° |
| 2026-05-05 18:11 | 28.24432 | 43.16865 | 37951 ft | 452 kts | 302° |
| 2026-05-05 18:11 | 28.28728 | 43.11641 | 37949 ft | 452 kts | 302° |
| 2026-05-05 18:12 | 28.32997 | 43.06444 | 37953 ft | 452 kts | 302° |
| 2026-05-05 18:12 | 28.37296 | 43.01203 | 37967 ft | 451 kts | 302° |
| 2026-05-05 18:13 | 28.41575 | 42.95980 | 37972 ft | 451 kts | 302° |
| 2026-05-05 18:13 | 28.45819 | 42.90793 | 37970 ft | 450 kts | 302° |
| 2026-05-05 18:14 | 28.50086 | 42.85571 | 37979 ft | 450 kts | 302° |
| 2026-05-05 18:14 | 28.54354 | 42.80340 | 37964 ft | 450 kts | 302° |
| 2026-05-05 18:15 | 28.58583 | 42.75151 | 37974 ft | 449 kts | 302° |
| 2026-05-05 18:15 | 28.62832 | 42.69932 | 37979 ft | 448 kts | 302° |
| 2026-05-05 18:16 | 28.67046 | 42.64746 | 37985 ft | 448 kts | 302° |
| 2026-05-05 18:16 | 28.71279 | 42.59519 | 37983 ft | 447 kts | 301° |
| 2026-05-05 18:17 | 28.75496 | 42.54303 | 37985 ft | 446 kts | 301° |
| 2026-05-05 18:17 | 28.79677 | 42.49126 | 37979 ft | 445 kts | 301° |
| 2026-05-05 18:18 | 28.83876 | 42.43922 | 37983 ft | 445 kts | 301° |
| 2026-05-05 18:18 | 28.88072 | 42.38712 | 37986 ft | 444 kts | 301° |
| 2026-05-05 18:19 | 28.92233 | 42.33540 | 37988 ft | 444 kts | 301° |
| 2026-05-05 18:19 | 28.96415 | 42.28334 | 37986 ft | 444 kts | 301° |
| 2026-05-05 18:20 | 29.00576 | 42.23149 | 37989 ft | 445 kts | 301° |
| 2026-05-05 18:20 | 29.04779 | 42.17905 | 37988 ft | 445 kts | 301° |
| 2026-05-05 18:21 | 29.08950 | 42.12701 | 37995 ft | 446 kts | 301° |
| 2026-05-05 18:21 | 29.13150 | 42.07455 | 37983 ft | 447 kts | 301° |
| 2026-05-05 18:22 | 29.17326 | 42.02232 | 38000 ft | 447 kts | 301° |
| 2026-05-05 18:22 | 29.21516 | 41.96984 | 37997 ft | 448 kts | 301° |
| 2026-05-05 18:23 | 29.25743 | 41.91681 | 38002 ft | 448 kts | 301° |
| 2026-05-05 18:23 | 29.29950 | 41.86399 | 38000 ft | 449 kts | 301° |
| 2026-05-05 18:24 | 29.34161 | 41.81104 | 38002 ft | 449 kts | 301° |
| 2026-05-05 18:24 | 29.38343 | 41.75837 | 38000 ft | 449 kts | 301° |
| 2026-05-05 18:25 | 29.42554 | 41.70528 | 38002 ft | 448 kts | 301° |
| 2026-05-05 18:25 | 29.46754 | 41.65224 | 38006 ft | 448 kts | 300° |
| 2026-05-05 18:26 | 29.50919 | 41.59958 | 38006 ft | 448 kts | 300° |
| 2026-05-05 18:26 | 29.55115 | 41.54647 | 38006 ft | 448 kts | 300° |
| 2026-05-05 18:27 | 29.59298 | 41.49344 | 38013 ft | 448 kts | 300° |
| 2026-05-05 18:27 | 29.63458 | 41.44062 | 38013 ft | 447 kts | 300° |
| 2026-05-05 18:28 | 29.69727 | 41.36090 | 38020 ft | 447 kts | 300° |
| 2026-05-05 18:28 | 29.73930 | 41.30799 | 38023 ft | 451 kts | 303° |
| 2026-05-05 18:29 | 29.78625 | 41.25862 | 38021 ft | 458 kts | 306° |
| 2026-05-05 18:29 | 29.83381 | 41.21049 | 38011 ft | 457 kts | 307° |
| 2026-05-05 18:30 | 29.88158 | 41.16186 | 38021 ft | 456 kts | 306° |
| 2026-05-05 18:30 | 29.92887 | 41.11333 | 38027 ft | 456 kts | 306° |
| 2026-05-05 18:31 | 29.97622 | 41.06458 | 38025 ft | 456 kts | 306° |
| 2026-05-05 18:31 | 30.02329 | 41.01606 | 38033 ft | 455 kts | 306° |
| 2026-05-05 18:32 | 30.07051 | 40.96732 | 38021 ft | 455 kts | 306° |
| 2026-05-05 18:32 | 30.11772 | 40.91854 | 38035 ft | 455 kts | 306° |
| 2026-05-05 18:33 | 30.16461 | 40.87003 | 38029 ft | 455 kts | 306° |
| 2026-05-05 18:33 | 30.21169 | 40.82125 | 38027 ft | 454 kts | 306° |
| 2026-05-05 18:34 | 30.25887 | 40.77230 | 38013 ft | 454 kts | 306° |
| 2026-05-05 18:34 | 30.30587 | 40.72347 | 38016 ft | 454 kts | 306° |
| 2026-05-05 18:35 | 30.35257 | 40.67489 | 38031 ft | 453 kts | 306° |
| 2026-05-05 18:35 | 30.39959 | 40.62597 | 38024 ft | 454 kts | 307° |
| 2026-05-05 18:36 | 30.44709 | 40.57732 | 38026 ft | 455 kts | 307° |
| 2026-05-05 18:36 | 30.49446 | 40.52899 | 38026 ft | 456 kts | 307° |
| 2026-05-05 18:37 | 30.54222 | 40.48011 | 38029 ft | 456 kts | 307° |
| 2026-05-05 18:37 | 30.58954 | 40.43154 | 38020 ft | 457 kts | 307° |
| 2026-05-05 18:38 | 30.63725 | 40.38248 | 38028 ft | 457 kts | 307° |
| 2026-05-05 18:38 | 30.68493 | 40.33337 | 38030 ft | 457 kts | 307° |
| 2026-05-05 18:39 | 30.73231 | 40.28452 | 38029 ft | 457 kts | 307° |
| 2026-05-05 18:39 | 30.78001 | 40.23527 | 38025 ft | 457 kts | 307° |
| 2026-05-05 18:40 | 30.81951 | 40.19443 | 38022 ft | 457 kts | 307° |
| 2026-05-05 18:40 | 30.86704 | 40.14523 | 38018 ft | 457 kts | 307° |
| 2026-05-05 18:41 | 30.92221 | 40.08805 | 38018 ft | 456 kts | 307° |
| 2026-05-05 18:41 | 30.96191 | 40.04683 | 38014 ft | 456 kts | 307° |
| 2026-05-05 18:42 | 31.00902 | 39.99785 | 38014 ft | 456 kts | 307° |
| 2026-05-05 18:42 | 31.05635 | 39.94858 | 38010 ft | 456 kts | 307° |
| 2026-05-05 18:43 | 31.10377 | 39.89915 | 38012 ft | 456 kts | 307° |
| 2026-05-05 18:43 | 31.15087 | 39.84998 | 38013 ft | 457 kts | 307° |
| 2026-05-05 18:44 | 31.19832 | 39.80037 | 38011 ft | 457 kts | 307° |
| 2026-05-05 18:44 | 31.24586 | 39.75061 | 38014 ft | 458 kts | 307° |
| 2026-05-05 18:45 | 31.29309 | 39.70110 | 38002 ft | 459 kts | 307° |
| 2026-05-05 18:45 | 31.34073 | 39.65108 | 38006 ft | 459 kts | 307° |
| 2026-05-05 18:46 | 31.38834 | 39.60104 | 38004 ft | 460 kts | 307° |
| 2026-05-05 18:46 | 31.43598 | 39.55136 | 38001 ft | 464 kts | 310° |
| 2026-05-05 18:47 | 31.48772 | 39.50503 | 38013 ft | 469 kts | 313° |
| 2026-05-05 18:47 | 31.54027 | 39.45952 | 38010 ft | 470 kts | 313° |
| 2026-05-05 18:48 | 31.59271 | 39.41378 | 38005 ft | 469 kts | 313° |
| 2026-05-05 18:48 | 31.64473 | 39.36803 | 38010 ft | 469 kts | 312° |
| 2026-05-05 18:49 | 31.69699 | 39.32192 | 38012 ft | 468 kts | 312° |
| 2026-05-05 18:49 | 31.74921 | 39.27577 | 38016 ft | 468 kts | 312° |
| 2026-05-05 18:50 | 31.80101 | 39.22994 | 37999 ft | 467 kts | 312° |
| 2026-05-05 18:50 | 31.85297 | 39.18392 | 38011 ft | 466 kts | 312° |
| 2026-05-05 18:51 | 31.90438 | 39.13831 | 38006 ft | 465 kts | 312° |
| 2026-05-05 18:51 | 31.95610 | 39.09235 | 38008 ft | 464 kts | 312° |
| 2026-05-05 18:52 | 32.00776 | 39.04651 | 38006 ft | 465 kts | 314° |
| 2026-05-05 18:52 | 32.06374 | 39.00691 | 38015 ft | 478 kts | 322° |
| 2026-05-05 18:53 | 32.12372 | 38.97205 | 38004 ft | 479 kts | 323° |
| 2026-05-05 18:53 | 32.18363 | 38.93744 | 38020 ft | 478 kts | 323° |
| 2026-05-05 18:54 | 32.24288 | 38.90271 | 38017 ft | 477 kts | 323° |
| 2026-05-05 18:54 | 32.30241 | 38.86752 | 38020 ft | 477 kts | 322° |
| 2026-05-05 18:55 | 32.36176 | 38.83234 | 38022 ft | 477 kts | 322° |
| 2026-05-05 18:55 | 32.42070 | 38.79737 | 38022 ft | 477 kts | 322° |
| 2026-05-05 18:56 | 32.48010 | 38.76210 | 38021 ft | 476 kts | 322° |
| 2026-05-05 18:56 | 32.53945 | 38.72680 | 38022 ft | 476 kts | 322° |
| 2026-05-05 18:57 | 32.59835 | 38.69172 | 38026 ft | 476 kts | 322° |
| 2026-05-05 18:57 | 32.65755 | 38.65641 | 38025 ft | 475 kts | 322° |
| 2026-05-05 18:58 | 32.71667 | 38.62109 | 38017 ft | 474 kts | 322° |
| 2026-05-05 18:58 | 32.77525 | 38.58605 | 38030 ft | 473 kts | 322° |
| 2026-05-05 18:59 | 32.83416 | 38.55074 | 38033 ft | 473 kts | 323° |
| 2026-05-05 18:59 | 32.89256 | 38.51569 | 38042 ft | 472 kts | 323° |
| 2026-05-05 19:00 | 32.95121 | 38.48044 | 38038 ft | 472 kts | 323° |
| 2026-05-05 19:00 | 33.00983 | 38.44515 | 38036 ft | 471 kts | 323° |
| 2026-05-05 19:01 | 33.06833 | 38.40988 | 38033 ft | 471 kts | 323° |
| 2026-05-05 19:01 | 33.12655 | 38.37473 | 38031 ft | 471 kts | 323° |
| 2026-05-05 19:02 | 33.18496 | 38.33920 | 38015 ft | 471 kts | 323° |
| 2026-05-05 19:02 | 33.24344 | 38.30344 | 38022 ft | 471 kts | 323° |
| 2026-05-05 19:03 | 33.30165 | 38.26790 | 38030 ft | 471 kts | 323° |
| 2026-05-05 19:03 | 33.36016 | 38.23214 | 38032 ft | 472 kts | 323° |
| 2026-05-05 19:04 | 33.41837 | 38.19648 | 38043 ft | 472 kts | 323° |
| 2026-05-05 19:04 | 33.47704 | 38.16056 | 38034 ft | 473 kts | 324° |
| 2026-05-05 19:05 | 33.53593 | 38.12486 | 38029 ft | 474 kts | 324° |
| 2026-05-05 19:05 | 33.59447 | 38.08939 | 38032 ft | 473 kts | 324° |
| 2026-05-05 19:06 | 33.65323 | 38.05365 | 38032 ft | 473 kts | 324° |
| 2026-05-05 19:06 | 33.71193 | 38.01787 | 38032 ft | 472 kts | 324° |
| 2026-05-05 19:07 | 33.77016 | 37.98232 | 38039 ft | 471 kts | 324° |
| 2026-05-05 19:07 | 33.82849 | 37.94640 | 38036 ft | 467 kts | 321° |
| 2026-05-05 19:08 | 33.85500 | 37.92464 | 38035 ft | 454 kts | 312° |
| 2026-05-05 19:08 | 33.87809 | 37.89905 | 38045 ft | 447 kts | 306° |
| 2026-05-05 19:08 | 33.91478 | 37.84092 | 38040 ft | 435 kts | 296° |
| 2026-05-05 19:09 | 33.94663 | 37.77877 | 38043 ft | 435 kts | 295° |
| 2026-05-05 19:09 | 33.97847 | 37.71670 | 38049 ft | 436 kts | 296° |
| 2026-05-05 19:10 | 34.01054 | 37.65488 | 38038 ft | 437 kts | 296° |
| 2026-05-05 19:10 | 34.04296 | 37.59259 | 38046 ft | 438 kts | 296° |
| 2026-05-05 19:11 | 34.07519 | 37.53057 | 38047 ft | 439 kts | 296° |
| 2026-05-05 19:11 | 34.10762 | 37.46803 | 38042 ft | 439 kts | 296° |
| 2026-05-05 19:12 | 34.14013 | 37.40522 | 38041 ft | 440 kts | 296° |
| 2026-05-05 19:12 | 34.15629 | 37.37398 | 37871 ft | 437 kts | 296° |
| 2026-05-05 19:12 | 34.17236 | 37.34288 | 37494 ft | 437 kts | 296° |
| 2026-05-05 19:13 | 34.18803 | 37.31183 | 37090 ft | 437 kts | 293° |
| 2026-05-05 19:13 | 34.20059 | 37.27863 | 36662 ft | 432 kts | 286° |
| 2026-05-05 19:13 | 34.21008 | 37.24415 | 36257 ft | 430 kts | 282° |
| 2026-05-05 19:13 | 34.21728 | 37.20919 | 35851 ft | 428 kts | 277° |
| 2026-05-05 19:14 | 34.22113 | 37.17358 | 35441 ft | 426 kts | 273° |
| 2026-05-05 19:14 | 34.22389 | 37.13798 | 35042 ft | 426 kts | 272° |
| 2026-05-05 19:14 | 34.22645 | 37.10227 | 34644 ft | 425 kts | 272° |
| 2026-05-05 19:14 | 34.22897 | 37.06720 | 34244 ft | 425 kts | 272° |
| 2026-05-05 19:15 | 34.23160 | 37.03161 | 33777 ft | 425 kts | 273° |
| 2026-05-05 19:15 | 34.23430 | 36.99597 | 33188 ft | 426 kts | 273° |
| 2026-05-05 19:15 | 34.23705 | 36.96024 | 32537 ft | 428 kts | 273° |
| 2026-05-05 19:15 | 34.23985 | 36.92420 | 31842 ft | 430 kts | 273° |
| 2026-05-05 19:16 | 34.24262 | 36.88857 | 31137 ft | 432 kts | 274° |
| 2026-05-05 19:16 | 34.24543 | 36.85254 | 30411 ft | 427 kts | 274° |
| 2026-05-05 19:16 | 34.24819 | 36.81703 | 29636 ft | 421 kts | 274° |
| 2026-05-05 19:16 | 34.25089 | 36.78198 | 28882 ft | 415 kts | 274° |
| 2026-05-05 19:17 | 34.25354 | 36.74749 | 28183 ft | 409 kts | 274° |
| 2026-05-05 19:17 | 34.25614 | 36.71347 | 27500 ft | 404 kts | 274° |
| 2026-05-05 19:17 | 34.25870 | 36.67978 | 26804 ft | 399 kts | 274° |
| 2026-05-05 19:17 | 34.26122 | 36.64651 | 26164 ft | 395 kts | 274° |
| 2026-05-05 19:18 | 34.26368 | 36.61402 | 25516 ft | 391 kts | 274° |
| 2026-05-05 19:18 | 34.26614 | 36.58131 | 24878 ft | 387 kts | 274° |
| 2026-05-05 19:18 | 34.26796 | 36.54899 | 24255 ft | 384 kts | 272° |
| 2026-05-05 19:18 | 34.26916 | 36.51673 | 23600 ft | 382 kts | 272° |
| 2026-05-05 19:19 | 34.27017 | 36.48471 | 22875 ft | 380 kts | 272° |
| 2026-05-05 19:19 | 34.27117 | 36.45290 | 22223 ft | 376 kts | 272° |
| 2026-05-05 19:19 | 34.27221 | 36.42141 | 21588 ft | 373 kts | 273° |
| 2026-05-05 19:19 | 34.27328 | 36.39048 | 20985 ft | 370 kts | 273° |
| 2026-05-05 19:20 | 34.27439 | 36.35945 | 20388 ft | 367 kts | 273° |
| 2026-05-05 19:20 | 34.27550 | 36.32876 | 19797 ft | 364 kts | 274° |
| 2026-05-05 19:20 | 34.27660 | 36.29821 | 19198 ft | 361 kts | 274° |
| 2026-05-05 19:20 | 34.27768 | 36.26803 | 18640 ft | 358 kts | 274° |
| 2026-05-05 19:21 | 34.27876 | 36.23801 | 18003 ft | 356 kts | 274° |
| 2026-05-05 19:21 | 34.27983 | 36.20820 | 17379 ft | 353 kts | 274° |
| 2026-05-05 19:21 | 34.28084 | 36.17900 | 16827 ft | 350 kts | 275° |
| 2026-05-05 19:21 | 34.28187 | 36.14962 | 16252 ft | 347 kts | 275° |
| 2026-05-05 19:22 | 34.28290 | 36.12059 | 15700 ft | 344 kts | 275° |
| 2026-05-05 19:22 | 34.28390 | 36.09166 | 15185 ft | 345 kts | 275° |
| 2026-05-05 19:22 | 34.28492 | 36.06234 | 14648 ft | 352 kts | 275° |
| 2026-05-05 19:22 | 34.28595 | 36.03273 | 14092 ft | 361 kts | 275° |
| 2026-05-05 19:23 | 34.28699 | 36.00226 | 13451 ft | 364 kts | 275° |
| 2026-05-05 19:23 | 34.28822 | 35.97168 | 12795 ft | 363 kts | 276° |
| 2026-05-05 19:23 | 34.28961 | 35.94125 | 12203 ft | 359 kts | 275° |
| 2026-05-05 19:23 | 34.29102 | 35.91123 | 11658 ft | 355 kts | 275° |
| 2026-05-05 19:24 | 34.29238 | 35.88164 | 11089 ft | 350 kts | 275° |
| 2026-05-05 19:24 | 34.29369 | 35.85258 | 10862 ft | 339 kts | 275° |
| 2026-05-05 19:24 | 34.29499 | 35.82465 | 10715 ft | 326 kts | 275° |
| 2026-05-05 19:24 | 34.29620 | 35.79782 | 10567 ft | 310 kts | 275° |
| 2026-05-05 19:25 | 34.29727 | 35.77336 | 10413 ft | 278 kts | 275° |
| 2026-05-05 19:25 | 34.29824 | 35.75117 | 10303 ft | 252 kts | 274° |
| 2026-05-05 19:25 | 34.29915 | 35.73035 | 10224 ft | 244 kts | 274° |
| 2026-05-05 19:25 | 34.30001 | 35.70951 | 10144 ft | 253 kts | 271° |
| 2026-05-05 19:26 | 34.29615 | 35.68831 | 10030 ft | 266 kts | 247° |
| 2026-05-05 19:26 | 34.28759 | 35.66804 | 9757 ft | 281 kts | 244° |
| 2026-05-05 19:26 | 34.27845 | 35.64682 | 9443 ft | 284 kts | 244° |
| 2026-05-05 19:26 | 34.26936 | 35.62573 | 9116 ft | 283 kts | 244° |
| 2026-05-05 19:27 | 34.26030 | 35.60462 | 8749 ft | 279 kts | 244° |
| 2026-05-05 19:27 | 34.25170 | 35.58455 | 8391 ft | 259 kts | 244° |
| 2026-05-05 19:27 | 34.24633 | 35.57199 | 8151 ft | 249 kts | 244° |
| 2026-05-05 19:27 | 34.23565 | 35.54688 | 7412 ft | 259 kts | 244° |
| 2026-05-05 19:28 | 34.23007 | 35.53376 | 7005 ft | 261 kts | 244° |
| 2026-05-05 19:28 | 34.22180 | 35.51430 | 6388 ft | 259 kts | 244° |
| 2026-05-05 19:28 | 34.21359 | 35.49501 | 5744 ft | 255 kts | 244° |
| 2026-05-05 19:28 | 34.20565 | 35.47632 | 5110 ft | 252 kts | 244° |
| 2026-05-05 19:29 | 34.19790 | 35.45815 | 5016 ft | 234 kts | 244° |
| 2026-05-05 19:29 | 34.19031 | 35.44032 | 5034 ft | 247 kts | 244° |
| 2026-05-05 19:29 | 34.18226 | 35.42142 | 5037 ft | 253 kts | 244° |
| 2026-05-05 19:29 | 34.17251 | 35.40413 | 5016 ft | 251 kts | 223° |
| 2026-05-05 19:30 | 34.15705 | 35.39451 | 5045 ft | 254 kts | 195° |
| 2026-05-05 19:30 | 34.13944 | 35.39361 | 4967 ft | 260 kts | 174° |
| 2026-05-05 19:30 | 34.12199 | 35.39821 | 4646 ft | 248 kts | 167° |
| 2026-05-05 19:30 | 34.10617 | 35.40332 | 4356 ft | 229 kts | 167° |
| 2026-05-05 19:31 | 34.09105 | 35.40807 | 4152 ft | 220 kts | 168° |
| 2026-05-05 19:31 | 34.07650 | 35.41250 | 4058 ft | 213 kts | 168° |
| 2026-05-05 19:31 | 34.06216 | 35.41679 | 4008 ft | 211 kts | 169° |
| 2026-05-05 19:31 | 34.04813 | 35.42078 | 3983 ft | 201 kts | 169° |
| 2026-05-05 19:32 | 34.03482 | 35.42451 | 3969 ft | 194 kts | 169° |
| 2026-05-05 19:32 | 34.02190 | 35.42811 | 3980 ft | 193 kts | 169° |
| 2026-05-05 19:32 | 34.00885 | 35.43173 | 3987 ft | 192 kts | 169° |
| 2026-05-05 19:32 | 33.99586 | 35.43534 | 3798 ft | 191 kts | 169° |
| 2026-05-05 19:33 | 33.98289 | 35.43894 | 3469 ft | 190 kts | 169° |
| 2026-05-05 19:33 | 33.97000 | 35.44255 | 3162 ft | 189 kts | 169° |
| 2026-05-05 19:33 | 33.95725 | 35.44612 | 2874 ft | 188 kts | 169° |
| 2026-05-05 19:33 | 33.94456 | 35.44967 | 2562 ft | 185 kts | 169° |
| 2026-05-05 19:34 | 33.93208 | 35.45316 | 2303 ft | 181 kts | 169° |
| 2026-05-05 19:34 | 33.92023 | 35.45649 | 2142 ft | 168 kts | 168° |
| 2026-05-05 19:34 | 33.90928 | 35.45955 | 1845 ft | 160 kts | 168° |
| 2026-05-05 19:35 | 33.88870 | 35.46527 | 1148 ft | 144 kts | 167° |
| 2026-05-05 19:35 | 33.87879 | 35.46800 | 1024 ft | 150 kts | 166° |
| 2026-05-05 19:35 | 33.86848 | 35.47092 | 826 ft | 152 kts | 166° |
| 2026-05-05 19:35 | 33.85850 | 35.47377 | 524 ft | 144 kts | 166° |
| 2026-05-05 19:36 | 33.84884 | 35.47648 | 314 ft | 142 kts | 167° |
| 2026-05-05 19:36 | 33.83928 | 35.47914 | 95 ft | 141 kts | 166° |
| 2026-05-05 19:36 | 33.83013 | 35.48168 | 61 ft | 123 kts | 166° |
| 2026-05-05 19:36 | 33.82329 | 35.48359 | 63 ft | 79 kts | 168° |
| 2026-05-05 19:37 | 33.81948 | 35.48517 | 56 ft | 41 kts | 143° |
| 2026-05-05 19:37 | 33.81780 | 35.48709 | 57 ft | 30 kts | 124° |
| 2026-05-05 19:37 | 33.81714 | 35.48947 | 59 ft | 28 kts | 103° |
| 2026-05-05 19:37 | 33.81769 | 35.49048 | 58 ft | 23 kts | 22° |
| 2026-05-05 19:38 | 33.81937 | 35.49048 | 61 ft | 25 kts | 356° |
| 2026-05-05 19:38 | 33.82108 | 35.49034 | 54 ft | 25 kts | 356° |
| 2026-05-05 19:38 | 33.82280 | 35.49016 | 60 ft | 25 kts | 352° |
| 2026-05-05 19:38 | 33.82449 | 35.48993 | 60 ft | 24 kts | 355° |
| 2026-05-05 19:39 | 33.82509 | 35.49014 | 57 ft | 7 kts | 57° |
| 2026-05-05 19:39 | 33.82508 | 35.49072 | 60 ft | 7 kts | 103° |
| 2026-05-05 19:39 | 33.82501 | 35.49104 | 60 ft | 0 kts | 104° |